createdAt,value
2018-09-15T00:00:43.770Z,2.00
2018-09-15T00:03:12.254Z,2.90
2018-09-15T00:05:40.736Z,1.63
2018-09-15T00:08:09.211Z,1.80
2018-09-15T00:10:37.793Z,1.70
2018-09-15T00:13:06.427Z,2.30
2018-09-15T00:15:34.920Z,1.77
2018-09-15T00:18:05.828Z,1.90
2018-09-15T00:20:34.344Z,2.03
2018-09-15T00:23:02.862Z,1.50
2018-09-15T00:25:31.431Z,1.70
2018-09-15T00:27:59.956Z,1.80
2018-09-15T00:30:28.452Z,1.23
2018-09-15T00:32:56.958Z,1.63
2018-09-15T00:35:25.432Z,1.90
2018-09-15T00:37:53.894Z,1.80
2018-09-15T00:40:22.411Z,1.70
2018-09-15T00:42:50.895Z,2.60
2018-09-15T00:45:19.371Z,2.00
2018-09-15T00:47:47.827Z,2.13
2018-09-15T00:50:16.298Z,1.90
2018-09-15T00:52:44.768Z,2.13
2018-09-15T00:55:13.248Z,1.77
2018-09-15T00:57:41.746Z,2.00
2018-09-15T01:00:10.259Z,1.83
2018-09-15T01:02:38.739Z,1.60
2018-09-15T01:05:07.242Z,1.83
2018-09-15T01:07:35.714Z,2.20
2018-09-15T01:10:04.490Z,2.23
2018-09-15T01:12:33.071Z,1.57
2018-09-15T01:15:01.560Z,1.60
2018-09-15T01:17:30.035Z,1.50
2018-09-15T01:19:58.532Z,2.37
2018-09-15T01:22:26.995Z,2.00
2018-09-15T01:24:55.515Z,2.93
2018-09-15T01:27:23.979Z,1.90
2018-09-15T01:29:52.454Z,1.90
2018-09-15T01:32:20.995Z,2.37
2018-09-15T01:34:49.562Z,3.50
2018-09-15T01:37:18.039Z,4.30
2018-09-15T01:39:46.503Z,1.87
2018-09-15T01:42:14.971Z,2.00
2018-09-15T01:44:43.545Z,1.93
2018-09-15T01:47:12.027Z,1.70
2018-09-15T01:49:40.515Z,1.60
2018-09-15T01:52:09.039Z,1.60
2018-09-15T01:54:37.506Z,2.40
2018-09-15T01:57:05.979Z,1.73
2018-09-15T01:59:34.471Z,1.70
2018-09-15T02:02:02.974Z,1.40
2018-09-15T02:04:31.517Z,1.53
2018-09-15T02:07:00.008Z,1.77
2018-09-15T02:09:28.445Z,1.53
2018-09-15T02:11:56.911Z,1.53
2018-09-15T02:14:25.422Z,1.60
2018-09-15T02:16:54.006Z,1.50
2018-09-15T02:19:22.486Z,1.30
2018-09-15T02:21:50.987Z,1.47
2018-09-15T02:24:19.482Z,1.67
2018-09-15T02:26:47.991Z,1.23
2018-09-15T02:29:16.491Z,1.60
2018-09-15T02:31:44.987Z,1.90
2018-09-15T02:34:13.467Z,1.80
2018-09-15T02:36:42.003Z,1.80
2018-09-15T02:39:11.178Z,1.77
2018-09-15T02:41:39.643Z,1.50
2018-09-15T02:44:08.115Z,1.47
2018-09-15T02:46:36.654Z,1.57
2018-09-15T02:49:05.103Z,2.00
2018-09-15T02:51:33.614Z,2.00
2018-09-15T02:54:02.102Z,1.60
2018-09-15T02:56:30.623Z,1.83
2018-09-15T02:58:59.092Z,1.80
2018-09-15T03:01:27.571Z,1.80
2018-09-15T03:03:56.158Z,1.77
2018-09-15T03:06:24.668Z,1.67
2018-09-15T03:08:53.215Z,2.23
2018-09-15T03:11:21.710Z,2.07
2018-09-15T03:13:50.170Z,2.70
2018-09-15T03:16:18.674Z,2.20
2018-09-15T03:18:47.251Z,2.20
2018-09-15T03:21:15.719Z,1.30
2018-09-15T03:23:44.211Z,2.20
2018-09-15T03:26:12.745Z,2.70
2018-09-15T03:28:41.570Z,1.73
2018-09-15T03:31:10.043Z,2.23
2018-09-15T03:33:38.531Z,1.57
2018-09-15T03:36:07.012Z,2.00
2018-09-15T03:38:35.470Z,2.50
2018-09-15T03:41:03.945Z,2.33
2018-09-15T03:43:32.469Z,2.40
2018-09-15T03:46:00.923Z,3.13
2018-09-15T03:48:29.427Z,2.80
2018-09-15T03:50:57.901Z,2.63
2018-09-15T03:53:26.385Z,2.63
2018-09-15T03:55:55.044Z,1.93
2018-09-15T03:58:23.526Z,2.20
2018-09-15T04:00:53.375Z,1.77
2018-09-15T04:03:22.559Z,2.17
2018-09-15T04:05:51.054Z,1.90
2018-09-15T04:08:20.054Z,2.20
2018-09-15T04:10:48.523Z,3.10
2018-09-15T04:13:16.982Z,1.90
2018-09-15T04:15:45.467Z,1.80
2018-09-15T04:18:15.738Z,2.00
2018-09-15T04:20:45.955Z,1.83
2018-09-15T04:23:15.030Z,3.60
2018-09-15T04:25:44.116Z,2.30
2018-09-15T04:28:12.632Z,2.93
2018-09-15T04:30:41.692Z,3.20
2018-09-15T04:33:10.591Z,3.10
2018-09-15T04:35:39.291Z,3.27
2018-09-15T04:38:07.786Z,3.13
2018-09-15T04:40:36.286Z,3.20
2018-09-15T04:43:04.770Z,3.40
2018-09-15T04:45:33.302Z,3.43
2018-09-15T04:48:01.785Z,2.93
2018-09-15T04:50:30.275Z,2.90
2018-09-15T04:52:58.763Z,2.90
2018-09-15T04:55:27.275Z,3.30
2018-09-15T04:57:55.738Z,2.50
2018-09-15T05:00:30.952Z,2.90
2018-09-15T05:02:59.423Z,3.20
2018-09-15T05:05:27.923Z,3.83
2018-09-15T05:07:56.482Z,4.03
2018-09-15T05:10:24.961Z,3.33
2018-09-15T05:12:53.504Z,3.30
2018-09-15T05:15:21.934Z,3.37
2018-09-15T05:17:50.548Z,2.30
2018-09-15T05:20:19.159Z,2.90
2018-09-15T05:22:47.647Z,3.10
2018-09-15T05:25:16.152Z,3.47
2018-09-15T05:27:44.727Z,3.10
2018-09-15T05:30:13.355Z,3.50
2018-09-15T05:32:41.831Z,3.40
2018-09-15T05:35:10.454Z,2.93
2018-09-15T05:37:38.996Z,3.20
2018-09-15T05:40:07.683Z,3.53
2018-09-15T05:42:37.003Z,4.50
2018-09-15T05:45:05.543Z,3.73
2018-09-15T05:47:34.019Z,3.43
2018-09-15T05:50:03.158Z,4.10
2018-09-15T05:52:31.701Z,3.70
2018-09-15T05:55:00.174Z,3.30
2018-09-15T05:57:28.660Z,3.60
2018-09-15T05:59:57.145Z,3.50
2018-09-15T06:02:25.691Z,4.03
2018-09-15T06:04:55.386Z,4.07
2018-09-15T06:07:23.919Z,4.47
2018-09-15T06:09:52.387Z,3.40
2018-09-15T06:12:20.863Z,3.43
2018-09-15T06:14:49.351Z,4.00
2018-09-15T06:17:17.838Z,3.57
2018-09-15T06:19:46.346Z,3.77
2018-09-15T06:22:14.868Z,3.27
2018-09-15T06:24:43.350Z,2.80
2018-09-15T06:27:11.834Z,4.03
2018-09-15T06:29:40.323Z,2.60
2018-09-15T06:32:08.854Z,2.03
2018-09-15T06:34:37.324Z,3.47
2018-09-15T06:37:05.831Z,2.47
2018-09-15T06:39:34.366Z,2.00
2018-09-15T06:42:02.875Z,1.80
2018-09-15T06:44:31.354Z,2.07
2018-09-15T06:46:59.866Z,2.27
2018-09-15T06:49:28.327Z,2.60
2018-09-15T06:51:56.811Z,2.60
2018-09-15T06:54:25.297Z,2.80
2018-09-15T06:56:53.783Z,2.83
2018-09-15T06:59:22.258Z,2.90
2018-09-15T07:01:50.748Z,2.70
2018-09-15T07:04:19.230Z,2.50
2018-09-15T07:06:47.708Z,3.30
2018-09-15T07:09:16.183Z,3.30
2018-09-15T07:11:44.670Z,2.57
2018-09-15T07:14:13.147Z,2.50
2018-09-15T07:16:41.674Z,3.20
2018-09-15T07:19:10.200Z,3.00
2018-09-15T07:21:38.693Z,3.37
2018-09-15T07:24:07.203Z,3.30
2018-09-15T07:26:35.666Z,3.23
2018-09-15T07:29:05.827Z,2.80
2018-09-15T07:31:34.363Z,2.50
2018-09-15T07:34:02.831Z,2.53
2018-09-15T07:36:31.347Z,2.73
2018-09-15T07:38:59.815Z,2.77
2018-09-15T07:41:28.307Z,2.90
2018-09-15T07:43:56.860Z,2.20
2018-09-15T07:46:25.379Z,2.37
2018-09-15T07:48:53.862Z,2.60
2018-09-15T07:51:22.334Z,2.63
2018-09-15T07:53:50.836Z,2.50
2018-09-15T07:56:19.326Z,2.93
2018-09-15T07:58:48.195Z,2.90
2018-09-15T08:01:16.686Z,3.00
2018-09-15T08:03:45.250Z,3.50
2018-09-15T08:06:13.723Z,3.50
2018-09-15T08:08:42.195Z,3.03
2018-09-15T08:11:10.725Z,3.50
2018-09-15T08:13:39.147Z,4.17
2018-09-15T08:16:07.759Z,2.70
2018-09-15T08:18:36.278Z,2.20
2018-09-15T08:21:04.740Z,2.80
2018-09-15T08:23:33.248Z,2.87
2018-09-15T08:26:01.746Z,2.67
2018-09-15T08:28:30.244Z,2.57
2018-09-15T08:30:58.738Z,2.07
2018-09-15T08:33:27.279Z,2.37
2018-09-15T08:35:55.758Z,1.57
2018-09-15T08:38:24.213Z,2.00
2018-09-15T08:40:52.722Z,1.50
2018-09-15T08:43:21.306Z,1.67
2018-09-15T08:45:51.046Z,1.50
2018-09-15T08:48:19.599Z,1.30
2018-09-15T08:50:48.022Z,2.10
2018-09-15T08:53:16.849Z,1.90
2018-09-15T08:55:45.397Z,1.40
2018-09-15T08:58:13.871Z,1.50
2018-09-15T09:00:42.354Z,1.00
2018-09-15T09:03:10.827Z,1.53
2018-09-15T09:05:39.315Z,1.80
2018-09-15T09:08:07.804Z,1.20
2018-09-15T09:10:36.270Z,1.93
2018-09-15T09:13:04.758Z,1.30
2018-09-15T09:15:33.311Z,1.60
2018-09-15T09:18:01.820Z,1.30
2018-09-15T09:20:30.303Z,1.70
2018-09-15T09:22:58.830Z,1.83
2018-09-15T09:25:27.307Z,2.03
2018-09-15T09:27:55.828Z,1.70
2018-09-15T09:30:24.311Z,1.70
2018-09-15T09:32:52.817Z,1.70
2018-09-15T09:35:21.298Z,1.67
2018-09-15T09:37:49.794Z,1.30
2018-09-15T09:40:18.271Z,1.70
2018-09-15T09:42:46.816Z,1.53
2018-09-15T09:45:15.297Z,1.40
2018-09-15T09:47:43.837Z,1.30
2018-09-15T09:50:12.287Z,1.40
2018-09-15T09:52:40.758Z,1.50
2018-09-15T09:55:09.371Z,1.90
2018-09-15T09:57:37.846Z,1.77
2018-09-15T10:00:06.408Z,1.67
2018-09-15T10:02:34.898Z,1.70
2018-09-15T10:05:04.018Z,1.50
2018-09-15T10:07:32.549Z,1.87
2018-09-15T10:10:01.006Z,1.83
2018-09-15T10:12:29.491Z,1.40
2018-09-15T10:14:57.955Z,1.63
2018-09-15T10:17:26.411Z,1.87
2018-09-15T10:19:54.879Z,1.90
2018-09-15T10:22:23.346Z,1.70
2018-09-15T10:24:51.847Z,1.70
2018-09-15T10:27:20.307Z,2.07
2018-09-15T10:29:48.774Z,2.00
2018-09-15T10:32:17.255Z,2.00
2018-09-15T10:34:45.717Z,1.87
2018-09-15T10:37:14.195Z,2.00
2018-09-15T10:39:42.654Z,1.87
2018-09-15T10:42:11.118Z,1.53
2018-09-15T10:44:39.618Z,1.77
2018-09-15T10:47:08.093Z,1.73
2018-09-15T10:49:36.550Z,1.20
2018-09-15T10:52:05.046Z,1.80
2018-09-15T10:54:33.523Z,1.83
2018-09-15T10:57:02.029Z,1.87
2018-09-15T10:59:30.596Z,1.97
2018-09-15T11:01:59.075Z,1.97
2018-09-15T11:04:27.579Z,1.77
2018-09-15T11:06:56.059Z,1.80
2018-09-15T11:09:24.539Z,2.00
2018-09-15T11:11:53.031Z,2.10
2018-09-15T11:14:21.502Z,2.20
2018-09-15T11:16:49.959Z,2.03
2018-09-15T11:19:18.431Z,2.10
2018-09-15T11:21:46.914Z,1.87
2018-09-15T11:24:15.372Z,2.20
2018-09-15T11:26:43.832Z,2.07
2018-09-15T11:29:12.331Z,2.57
2018-09-15T11:31:40.806Z,2.60
2018-09-15T11:34:09.364Z,3.27
2018-09-15T11:36:37.772Z,2.80
2018-09-15T11:39:08.354Z,2.90
2018-09-15T11:41:36.825Z,2.77
2018-09-15T11:44:05.332Z,2.57
2018-09-15T11:46:33.806Z,2.43
2018-09-15T11:49:02.275Z,2.77
2018-09-15T11:51:30.910Z,2.30
2018-09-15T11:53:59.460Z,2.67
2018-09-15T11:56:27.878Z,2.97
2018-09-15T11:58:56.364Z,2.50
2018-09-15T12:01:24.854Z,2.30
2018-09-15T12:03:53.334Z,1.80
2018-09-15T12:06:21.810Z,2.50
2018-09-15T12:08:50.313Z,2.00
2018-09-15T12:11:18.786Z,2.10
2018-09-15T12:13:47.290Z,2.17
2018-09-15T12:16:15.795Z,2.30
2018-09-15T12:18:44.323Z,2.20
2018-09-15T12:21:12.813Z,2.10
2018-09-15T12:23:41.283Z,2.27
2018-09-15T12:26:09.838Z,1.80
2018-09-15T12:28:38.327Z,2.30
2018-09-15T12:31:07.005Z,2.17
2018-09-15T12:33:35.624Z,1.70
2018-09-15T12:36:04.147Z,1.70
2018-09-15T12:38:32.694Z,1.70
2018-09-15T12:41:01.178Z,1.70
2018-09-15T12:43:29.724Z,2.00
2018-09-15T12:45:58.209Z,2.50
2018-09-15T12:48:26.691Z,2.40
2018-09-15T12:50:55.168Z,2.70
2018-09-15T12:53:23.663Z,1.87
2018-09-15T12:55:52.131Z,1.97
2018-09-15T12:58:20.610Z,2.00
2018-09-15T13:00:49.095Z,2.20
2018-09-15T13:03:17.590Z,2.13
2018-09-15T13:05:46.063Z,1.90
2018-09-15T13:08:14.561Z,1.90
2018-09-15T13:10:43.047Z,1.83
2018-09-15T13:13:11.559Z,1.60
2018-09-15T13:15:40.089Z,1.70
2018-09-15T13:18:08.519Z,1.70
2018-09-15T13:20:37.021Z,1.87
2018-09-15T13:23:05.515Z,1.97
2018-09-15T13:25:33.986Z,2.17
2018-09-15T13:28:02.450Z,1.87
2018-09-15T13:30:30.914Z,2.30
2018-09-15T13:32:59.387Z,2.30
2018-09-15T13:35:27.855Z,1.87
2018-09-15T13:37:56.365Z,2.00
2018-09-15T13:40:24.815Z,2.17
2018-09-15T13:42:53.294Z,1.93
2018-09-15T13:45:21.800Z,1.60
2018-09-15T13:47:50.275Z,2.20
2018-09-15T13:50:18.738Z,1.97
2018-09-15T13:52:47.250Z,2.13
2018-09-15T13:55:15.740Z,2.10
2018-09-15T13:57:44.217Z,2.00
2018-09-15T14:00:12.710Z,2.43
2018-09-15T14:02:42.195Z,1.90
2018-09-15T14:05:12.419Z,2.40
2018-09-15T14:07:41.354Z,2.17
2018-09-15T14:10:10.474Z,1.80
2018-09-15T14:12:39.307Z,2.20
2018-09-15T14:15:07.835Z,2.00
2018-09-15T14:17:36.326Z,2.20
2018-09-15T14:20:05.587Z,2.00
2018-09-15T14:22:34.066Z,2.70
2018-09-15T14:25:03.278Z,2.37
2018-09-15T14:27:31.755Z,1.77
2018-09-15T14:30:00.219Z,2.40
2018-09-15T14:32:28.832Z,2.30
2018-09-15T14:34:57.353Z,1.83
2018-09-15T14:37:25.771Z,2.10
2018-09-15T14:39:54.243Z,1.67
2018-09-15T14:42:22.750Z,2.13
2018-09-15T14:44:51.224Z,2.00
2018-09-15T14:47:19.855Z,1.80
2018-09-15T14:49:48.327Z,2.37
2018-09-15T14:52:16.787Z,2.07
2018-09-15T14:54:45.278Z,1.83
2018-09-15T14:57:13.746Z,2.03
2018-09-15T14:59:42.250Z,1.93
2018-09-15T15:02:10.751Z,3.13
2018-09-15T15:04:39.240Z,2.40
2018-09-15T15:07:07.753Z,1.90
2018-09-15T15:09:36.234Z,2.17
2018-09-15T15:12:04.743Z,1.80
2018-09-15T15:14:33.290Z,2.13
2018-09-15T15:17:01.763Z,1.87
2018-09-15T15:19:30.257Z,2.23
2018-09-15T15:21:58.735Z,2.40
2018-09-15T15:24:27.202Z,2.30
2018-09-15T15:26:55.703Z,2.17
2018-09-15T15:29:24.198Z,2.20
2018-09-15T15:31:52.699Z,2.33
2018-09-15T15:34:21.184Z,2.10
2018-09-15T15:36:49.683Z,2.30
2018-09-15T15:39:18.326Z,1.90
2018-09-15T15:41:46.840Z,2.20
2018-09-15T15:44:15.276Z,1.93
2018-09-15T15:46:43.771Z,2.20
2018-09-15T15:49:12.310Z,1.97
2018-09-15T15:51:40.774Z,1.87
2018-09-15T15:54:09.236Z,2.27
2018-09-15T15:56:37.742Z,2.13
2018-09-15T15:59:06.248Z,2.00
2018-09-15T16:01:34.787Z,2.13
2018-09-15T16:04:03.207Z,2.17
2018-09-15T16:06:31.748Z,3.00
2018-09-15T16:09:00.238Z,2.10
2018-09-15T16:11:28.738Z,2.10
2018-09-15T16:13:57.200Z,3.03
2018-09-15T16:16:25.679Z,1.97
2018-09-15T16:18:54.158Z,3.10
2018-09-15T16:21:22.658Z,3.43
2018-09-15T16:23:51.150Z,2.37
2018-09-15T16:26:20.046Z,1.67
2018-09-15T16:28:48.528Z,2.63
2018-09-15T16:31:17.012Z,2.40
2018-09-15T16:33:45.574Z,2.53
2018-09-15T16:36:14.107Z,2.63
2018-09-15T16:38:42.651Z,3.00
2018-09-15T16:41:11.113Z,2.23
2018-09-15T16:43:39.579Z,2.73
2018-09-15T16:46:08.095Z,2.53
2018-09-15T16:48:36.570Z,2.90
2018-09-15T16:51:05.043Z,2.30
2018-09-15T16:53:33.527Z,2.60
2018-09-15T16:56:02.048Z,2.60
2018-09-15T16:58:30.590Z,3.63
2018-09-15T17:00:59.086Z,4.70
2018-09-15T17:03:27.619Z,5.57
2018-09-15T17:05:56.042Z,3.10
2018-09-15T17:08:24.519Z,2.63
2018-09-15T17:10:53.031Z,2.70
2018-09-15T17:13:21.553Z,3.40
2018-09-15T17:15:50.086Z,4.47
2018-09-15T17:18:18.534Z,4.13
2018-09-15T17:20:47.022Z,4.20
2018-09-15T17:23:15.541Z,2.90
2018-09-15T17:25:44.007Z,3.13
2018-09-15T17:28:12.487Z,3.87
2018-09-15T17:30:40.987Z,3.83
2018-09-15T17:33:09.490Z,2.90
2018-09-15T17:35:38.034Z,3.40
2018-09-15T17:38:06.504Z,3.33
2018-09-15T17:40:34.975Z,3.23
2018-09-15T17:43:03.452Z,3.80
2018-09-15T17:45:32.031Z,3.33
2018-09-15T17:48:00.483Z,3.73
2018-09-15T17:50:28.948Z,3.33
2018-09-15T17:52:57.455Z,3.10
2018-09-15T17:55:25.939Z,3.40
2018-09-15T17:57:54.414Z,3.40
2018-09-15T18:00:22.862Z,2.70
2018-09-15T18:02:51.397Z,4.43
2018-09-15T18:05:19.982Z,3.43
2018-09-15T18:07:48.459Z,3.47
2018-09-15T18:10:16.963Z,3.93
2018-09-15T18:12:45.483Z,3.40
2018-09-15T18:15:13.996Z,3.27
2018-09-15T18:17:42.474Z,3.00
2018-09-15T18:20:10.995Z,3.13
2018-09-15T18:22:39.480Z,3.20
2018-09-15T18:25:07.966Z,3.13
2018-09-15T18:27:36.442Z,2.97
2018-09-15T18:30:05.951Z,3.73
2018-09-15T18:32:34.415Z,3.30
2018-09-15T18:35:03.503Z,2.80
2018-09-15T18:37:32.034Z,3.17
2018-09-15T18:40:00.550Z,2.97
2018-09-15T18:42:29.032Z,4.03
2018-09-15T18:44:57.506Z,3.07
2018-09-15T18:47:26.059Z,4.07
2018-09-15T18:49:54.547Z,4.40
2018-09-15T18:52:23.022Z,3.57
2018-09-15T18:54:51.535Z,3.80
2018-09-15T18:57:20.007Z,4.23
2018-09-15T18:59:48.550Z,3.47
2018-09-15T19:02:17.039Z,3.30
2018-09-15T19:04:45.531Z,3.07
2018-09-15T19:07:13.984Z,3.43
2018-09-15T19:09:42.495Z,3.80
2018-09-15T19:12:10.997Z,3.43
2018-09-15T19:14:39.523Z,3.43
2018-09-15T19:17:07.971Z,3.70
2018-09-15T19:19:36.463Z,3.40
2018-09-15T19:22:04.981Z,3.20
2018-09-15T19:24:33.454Z,4.00
2018-09-15T19:27:02.007Z,4.20
2018-09-15T19:29:30.467Z,4.13
2018-09-15T19:31:58.957Z,4.00
2018-09-15T19:34:27.447Z,4.10
2018-09-15T19:36:55.920Z,4.60
2018-09-15T19:39:24.404Z,4.07
2018-09-15T19:41:52.874Z,3.97
2018-09-15T19:44:21.355Z,3.80
2018-09-15T19:46:49.831Z,3.50
2018-09-15T19:49:18.306Z,3.23
2018-09-15T19:51:46.798Z,3.30
2018-09-15T19:54:18.151Z,3.30
2018-09-15T19:56:46.618Z,3.50
2018-09-15T19:59:15.196Z,3.67
2018-09-15T20:01:43.632Z,4.13
2018-09-15T20:04:12.117Z,3.23
2018-09-15T20:06:43.554Z,4.00
2018-09-15T20:09:12.523Z,3.43
2018-09-15T20:11:41.035Z,3.43
2018-09-15T20:14:09.816Z,3.90
2018-09-15T20:16:37.139Z,3.80
2018-09-15T20:19:04.573Z,3.63
2018-09-15T20:21:31.914Z,3.70
2018-09-15T20:24:00.390Z,4.17
2018-09-15T20:26:28.879Z,3.77
2018-09-15T20:28:57.398Z,3.90
2018-09-15T20:31:25.876Z,4.50
2018-09-15T20:33:54.342Z,3.43
2018-09-15T20:36:22.811Z,3.40
2018-09-15T20:38:51.275Z,3.00
2018-09-15T20:41:19.751Z,2.90
2018-09-15T20:43:48.236Z,3.87
2018-09-15T20:46:16.728Z,3.70
2018-09-15T20:48:45.195Z,3.53
2018-09-15T20:51:13.667Z,3.83
2018-09-15T20:53:42.143Z,3.50
2018-09-15T20:56:10.622Z,4.00
2018-09-15T20:58:39.109Z,3.60
2018-09-15T21:01:07.603Z,3.50
2018-09-15T21:03:36.086Z,3.90
2018-09-15T21:06:04.548Z,3.90
2018-09-15T21:08:33.050Z,4.13
2018-09-15T21:11:01.519Z,4.00
2018-09-15T21:13:29.990Z,3.60
2018-09-15T21:15:58.533Z,3.57
2018-09-15T21:18:26.939Z,3.40
2018-09-15T21:20:55.401Z,4.20
2018-09-15T21:23:23.874Z,4.13
2018-09-15T21:25:52.346Z,3.60
2018-09-15T21:28:20.819Z,3.63
2018-09-15T21:30:49.282Z,3.93
2018-09-15T21:33:17.754Z,3.90
2018-09-15T21:35:46.267Z,3.50
2018-09-15T21:38:14.723Z,4.00
2018-09-15T21:40:43.196Z,4.20
2018-09-15T21:43:11.795Z,4.50
2018-09-15T21:45:40.263Z,3.30
2018-09-15T21:48:08.803Z,4.00
2018-09-15T21:50:37.286Z,4.13
2018-09-15T21:53:05.815Z,3.83
2018-09-15T21:55:34.307Z,3.70
2018-09-15T21:58:02.806Z,3.60
2018-09-15T22:00:31.495Z,4.07
2018-09-15T22:03:00.004Z,3.90
2018-09-15T22:05:28.515Z,4.00
2018-09-15T22:07:57.066Z,3.93
2018-09-15T22:10:25.563Z,3.63
2018-09-15T22:12:54.027Z,3.50
2018-09-15T22:15:24.985Z,3.70
2018-09-15T22:17:55.083Z,3.80
2018-09-15T22:20:23.567Z,3.37
2018-09-15T22:22:52.100Z,3.17
2018-09-15T22:25:20.565Z,4.13
2018-09-15T22:27:49.651Z,4.40
2018-09-15T22:30:18.211Z,4.07
2018-09-15T22:32:46.676Z,4.70
2018-09-15T22:35:15.187Z,4.67
2018-09-15T22:37:43.657Z,4.03
2018-09-15T22:40:12.339Z,3.67
2018-09-15T22:42:40.859Z,3.87
2018-09-15T22:45:09.333Z,3.33
2018-09-15T22:47:37.810Z,4.20
2018-09-15T22:50:06.415Z,4.00
2018-09-15T22:52:35.076Z,3.60
2018-09-15T22:55:04.058Z,4.30
2018-09-15T22:57:32.931Z,4.20
2018-09-15T23:00:01.402Z,3.33
2018-09-15T23:02:30.071Z,3.87
2018-09-15T23:04:58.632Z,4.07
2018-09-15T23:07:27.111Z,3.60
2018-09-15T23:09:55.566Z,4.00
2018-09-15T23:12:24.062Z,4.17
2018-09-15T23:14:52.559Z,4.30
2018-09-15T23:17:21.046Z,3.47
2018-09-15T23:19:49.526Z,3.70
2018-09-15T23:22:17.990Z,3.90
2018-09-15T23:24:46.454Z,4.30
2018-09-15T23:27:14.920Z,4.07
2018-09-15T23:29:43.370Z,4.37
2018-09-15T23:32:11.846Z,4.03
2018-09-15T23:34:40.314Z,3.33
2018-09-15T23:37:08.769Z,4.10
2018-09-15T23:39:37.286Z,4.07
2018-09-15T23:42:05.879Z,4.30
2018-09-15T23:44:34.358Z,3.93
2018-09-15T23:47:02.845Z,4.03
2018-09-15T23:49:31.327Z,3.53
2018-09-15T23:51:59.834Z,3.67
2018-09-15T23:54:28.296Z,3.90
2018-09-15T23:56:56.760Z,3.80
2018-09-15T23:59:25.236Z,4.13
